W K Kellogg Airport
KBTL : now visible

Airfield :











YOU CAN JOIN US ON...

 
LOGIN :

Register | Disclaimer

   EN    FR    IT 

 









Legend :    VFR   Marginal VFR   IFR   Intensive IFR   Very Intensive IFR
Visi :
Ceiling :
>= 8 km
>= 3000ft
5 to 8 km
1000 to 3000 ft
1500m to 5 km
500 to 1000 ft
800 to 1500m
200 to 500 ft
< 800m
< 200 ft
Symbols :   Thunderstorms  Fog  Heavy snow  Heavy precipitations  Wind > 20 kt






- Airport Elevation : 952 ft


KBTL - W K Kellogg

CURRENT METAR :
  • 161953Z 26007KT 10SM CLR 04/M04 A3006 RMK AO2 SLP186 T00391044 $

EXPIRED METARs :
  • 161853Z 25005KT 10SM CLR 03/M04 A3007 RMK AO2 SLP191 T00281039 $
  • 161753Z 22007KT 10SM CLR 02/M03 A3007 RMK AO2 SLP194 T00171033 10017 21022 58004 $
  • 161653Z 25008KT 10SM FEW018 01/M03 A3009 RMK AO2 SLP200 T00111033

TAF KBTL
Valid from the 16 at 19:00 until the 17 at 18:00 UTC


161858Z 1619/1718 26008KT P6SM SCT250
FM170000 VRB03KT P6SM SCT070
FM171500 11010G18KT P6SM SCT070 BKN120



MET'MAP, your aeronautical weather chart ! - Copyright ORBIFLY December 2007 - Disclaimer

ORBIFLY MET'MAP TEAM :

Programming & Development : Alexandra Zaïnal
Concept & original design : Baudouin d'Aumeries
Assistance for programming : Marc-Olivier Méhu
Technical & hardware support : Manuel Goepfert

Contact : metmap@orbifly.com




SOURCES & CREDITS :

   NOAA       Earth
Advisory